Date,TemperatureHighF,TemperatureAvgF,TemperatureLowF,DewpointHighF,DewpointAvgF,DewpointLowF,HumidityHigh,HumidityAvg,HumidityLow,PressureMaxIn,PressureMinIn,WindSpeedMaxMPH,WindSpeedAvgMPH,GustSpeedMaxMPH,PrecipitationSumIn
2014-1-1,25,20,17,-100,-100,-100,0,0,100,0.00,40.00,3,1,7,0.08
2014-1-2,20,17,10,-100,-100,-100,0,0,100,0.00,40.00,8,5,20,0.07
2014-1-3,19,11,8,-100,-100,-100,0,0,100,0.00,40.00,6,2,14,0.00
2014-1-4,32,21,10,-100,-100,-100,0,0,100,0.00,40.00,10,5,24,0.00
2014-1-5,41,34,30,-100,-100,-100,0,0,100,0.00,40.00,6,2,17,0.23
2014-1-6,42,7,-19,-100,-100,-100,0,0,100,0.00,40.00,12,8,28,0.09
2014-1-7,2,-10,-31,-100,-100,-100,0,0,100,0.00,40.00,10,7,25,0.00
2014-1-8,24,12,-1,-100,-100,-100,0,0,100,0.00,40.00,6,3,13,0.00
2014-1-9,35,20,8,-100,-100,-100,0,0,100,0.00,40.00,2,1,10,0.04
2014-1-10,43,37,28,-100,-100,-100,0,0,100,0.00,40.00,4,2,14,0.07
2014-1-11,50,44,33,-100,-100,-100,0,0,100,0.00,40.00,10,6,32,0.24
2014-1-12,36,33,32,-100,-100,-100,0,0,100,0.00,40.00,8,5,20,0.00
2014-1-13,48,43,37,-100,-100,-100,0,0,100,0.00,40.00,10,7,23,0.06
2014-1-14,46,38,34,-100,-100,-100,0,0,100,0.00,40.00,7,3,20,0.00
2014-1-15,38,30,26,-100,-100,-100,0,0,100,0.00,40.00,10,7,25,0.00
2014-1-16,49,20,-2,-100,-100,-100,0,0,100,0.00,40.00,8,5,20,0.00
2014-1-17,46,28,-2,-100,-100,-100,0,0,100,0.00,40.00,9,5,21,0.01
2014-1-18,28,18,14,-100,-100,-100,0,0,100,0.00,40.00,8,5,19,0.01
2014-1-19,31,21,12,-100,-100,-100,0,0,100,0.00,40.00,11,6,26,0.01
2014-1-20,29,19,11,-100,-100,-100,0,0,100,0.00,40.00,8,3,18,0.00
2014-1-21,15,9,1,-100,-100,-100,0,0,100,0.00,40.00,7,4,18,0.00
2014-1-22,16,7,-2,-100,-100,-100,0,0,100,0.00,40.00,5,2,12,0.00
2014-1-23,12,8,3,-100,-100,-100,0,0,100,0.00,40.00,5,3,16,0.07
2014-1-24,14,6,-4,-100,-100,-100,0,0,100,0.00,40.00,11,7,28,0.00
2014-1-25,27,18,11,-100,-100,-100,0,0,100,0.00,40.00,11,7,29,0.12
2014-1-26,30,14,4,-100,-100,-100,0,0,100,0.00,40.00,7,5,18,0.02
2014-1-27,305,12,-16,-100,-100,-100,0,0,100,0.00,40.00,14,8,33,0.01
2014-1-28,-48,-8,-66,-100,-100,-100,0,0,100,0.00,40.00,6,4,13,0.00
2014-1-29,21,11,-6,-100,-100,-100,0,0,100,0.00,40.00,10,6,23,0.00
2014-1-30,28,16,7,-100,-100,-100,0,0,100,0.00,40.00,8,5,21,0.00
2014-1-31,77,31,-9,-100,-100,-100,0,0,100,0.00,40.00,6,4,16,0.00
2014-2-1,12,0,-10,-100,-100,-100,0,0,100,0.00,40.00,3,0,5,0.00
2014-2-2,40,30,21,-100,-100,-100,0,0,100,0.00,40.00,5,1,17,0.06
2014-2-3,30,19,2,-100,-100,-100,0,0,100,0.00,40.00,3,1,11,0.00
2014-2-4,29,19,9,-100,-100,-100,0,0,100,0.00,40.00,4,1,10,0.08
2014-2-5,25,22,15,-100,-100,-100,0,0,100,0.00,40.00,6,3,20,0.23
2014-2-6,16,8,-3,-100,-100,-100,0,0,100,0.00,40.00,8,3,30,0.00
2014-2-7,17,3,-11,-100,-100,-100,0,0,100,0.00,40.00,7,4,20,0.00
2014-2-8,22,14,8,-100,-100,-100,0,0,100,0.00,40.00,3,1,10,0.01
2014-2-9,22,18,14,-100,-100,-100,0,0,100,0.00,40.00,8,2,18,0.10
2014-2-10,21,16,13,-100,-100,-100,0,0,100,0.00,40.00,4,2,11,0.00
2014-2-11,19,13,6,-100,-100,-100,0,0,100,0.00,40.00,2,0,6,0.00
2014-2-12,40,20,5,-100,-100,-100,0,0,100,0.00,40.00,3,1,8,0.00
2014-2-13,51,29,9,-100,-100,-100,0,0,100,0.00,40.00,3,1,9,0.00
2014-2-14,32,26,16,-100,-100,-100,0,0,100,0.00,40.00,6,3,18,0.03
2014-2-15,26,22,11,-100,-100,-100,0,0,100,0.00,40.00,6,2,16,0.00
2014-2-16,29,18,8,-100,-100,-100,0,0,100,0.00,40.00,4,1,11,0.01
2014-2-17,102,14,-16,-100,-100,-100,0,0,100,0.00,40.00,8,3,21,0.03
2014-2-18,41,27,7,-100,-100,-100,0,0,100,0.00,40.00,10,6,28,0.24
2014-2-19,68,36,16,-100,-100,-100,0,0,100,0.00,40.00,10,4,24,0.00
2014-2-20,39,31,19,-100,-100,-100,0,0,100,0.00,40.00,6,2,15,0.00
2014-2-21,42,35,29,-100,-100,-100,0,0,100,0.00,40.00,14,9,32,0.07
2014-2-22,42,32,27,-100,-100,-100,0,0,100,0.00,40.00,9,6,29,0.01
2014-2-23,37,29,21,-100,-100,-100,0,0,100,0.00,40.00,5,2,16,0.02
2014-2-24,22,20,17,-100,-100,-100,0,0,100,0.00,40.00,7,5,20,0.00
2014-2-25,22,15,10,-100,-100,-100,0,0,100,0.00,40.00,6,3,18,0.01
2014-2-26,14,10,7,-100,-100,-100,0,0,100,0.00,40.00,7,4,19,0.04
2014-2-27,11,7,0,-100,-100,-100,0,0,100,0.00,40.00,11,6,27,0.01
2014-2-28,11,0,-15,-100,-100,-100,0,0,100,0.00,40.00,3,1,12,0.00
2014-3-1,52,25,2,-100,-100,-100,0,0,100,0.00,40.00,5,2,11,0.00
2014-3-2,15,11,6,-100,-100,-100,0,0,100,0.00,40.00,4,2,10,0.08
2014-3-3,22,6,-15,-100,-100,-100,0,0,100,0.00,40.00,3,2,12,0.00
2014-3-4,26,2,-28,-100,-100,-100,0,0,100,0.00,40.00,3,0,10,0.00
2014-3-5,26,16,7,-100,-100,-100,0,0,100,0.00,40.00,6,2,14,0.00
2014-3-6,35,22,5,-100,-100,-100,0,0,100,0.00,40.00,4,3,11,0.00
2014-3-7,53,37,24,-100,-100,-100,0,0,100,0.00,40.00,4,2,11,0.00
2014-3-9,38,33,10,-100,-100,-100,0,0,100,0.00,40.00,7,4,17,0.00
2014-3-10,51,41,31,-100,-100,-100,0,0,100,0.00,40.00,10,6,20,0.00
2014-3-11,59,38,14,-100,-100,-100,0,0,100,0.00,40.00,5,1,14,0.00
2014-3-12,42,22,-12,-100,-100,-100,0,0,100,0.00,40.00,11,6,28,0.40
2014-3-13,26,5,-16,-100,-100,-100,0,0,100,0.00,40.00,6,3,18,0.00
2014-3-14,55,39,21,-100,-100,-100,0,0,100,0.00,40.00,14,8,31,0.03
2014-3-15,44,35,21,-100,-100,-100,0,0,100,0.00,40.00,9,5,24,0.00
2014-3-16,26,1,-15,-100,-100,-100,0,0,100,0.00,40.00,5,4,13,0.00
2014-3-17,43,12,-13,-100,-100,-100,0,0,100,0.00,40.00,3,2,10,0.00
2014-3-18,50,29,-1,-100,-100,-100,0,0,100,0.00,40.00,4,1,12,0.00
2014-3-19,60,40,17,-100,-100,-100,0,0,100,0.00,40.00,8,5,22,0.44
2014-3-20,36,29,22,-100,-100,-100,0,0,100,0.00,40.00,8,5,22,0.00
2014-3-21,40,33,21,-100,-100,-100,0,0,100,0.00,40.00,4,1,12,0.00
2014-3-22,40,32,25,-100,-100,-100,0,0,100,0.00,40.00,8,4,21,0.00
2014-3-23,35,22,6,-100,-100,-100,0,0,100,0.00,40.00,6,3,16,0.00
2014-3-24,33,26,20,-100,-100,-100,0,0,100,0.00,40.00,4,2,14,0.00
2014-3-25,43,34,23,-100,-100,-100,0,0,100,0.00,40.00,7,2,16,0.04
2014-3-26,39,25,8,-100,-100,-100,0,0,100,0.00,40.00,6,2,17,0.01
2014-3-27,55,28,16,-100,-100,-100,0,0,100,0.00,40.00,5,2,17,0.14
2014-3-28,66,49,36,-100,-100,-100,0,0,100,0.00,40.00,13,6,31,0.09
2014-3-29,37,29,12,-100,-100,-100,0,0,100,0.00,40.00,7,4,19,0.44
2014-3-30,41,28,15,-100,-100,-100,0,0,100,0.00,40.00,7,4,19,0.01
2014-3-31,61,42,27,-100,-100,-100,0,0,100,0.00,40.00,1,0,6,0.00
2014-4-1,71,55,46,-100,-100,-100,0,0,100,0.00,40.00,15,4,36,0.00
2014-4-2,59,49,41,-100,-100,-100,0,0,100,0.00,40.00,9,1,19,0.00
2014-4-3,53,44,39,-100,-100,-100,0,0,100,0.00,40.00,7,3,16,0.50
2014-4-4,68,58,46,-100,-100,-100,0,0,100,0.00,40.00,10,4,33,0.24
2014-4-5,49,44,39,-100,-100,-100,0,0,100,0.00,40.00,10,5,26,0.00
2014-4-6,67,48,35,-100,-100,-100,0,0,100,0.00,40.00,2,0,12,0.00
2014-4-7,62,49,45,-100,-100,-100,0,0,100,0.00,40.00,6,2,14,0.56
2014-4-8,62,48,40,-100,-100,-100,0,0,100,0.00,40.00,6,2,20,0.23
2014-4-9,48,45,42,-100,-100,-100,0,0,100,0.00,40.00,0,0,4,0.00
2014-4-11,65,55,38,-100,-100,-100,0,0,100,0.00,40.00,1,0,8,0.00
2014-4-12,68,56,48,-100,-100,-100,0,0,100,0.00,40.00,7,2,20,0.00
2014-4-13,72,60,51,-100,-100,-100,0,0,100,0.00,40.00,12,5,32,0.00
2014-4-14,74,64,58,-100,-100,-100,0,0,100,0.00,40.00,11,6,26,0.18
2014-4-15,63,37,28,-100,-100,-100,0,0,100,0.00,40.00,6,3,18,0.08
2014-4-16,45,33,22,-100,-100,-100,0,0,100,0.00,40.00,3,1,11,0.00
2014-4-17,68,46,33,-100,-100,-100,0,0,100,0.00,40.00,6,3,19,0.00
2014-4-18,71,55,40,-100,-100,-100,0,0,100,0.00,40.00,3,1,13,0.00